Glengary, West Virginia
Current Conditions -  °F | °C
As of 11:53 PM on Saturday 20 Dec 2014 (Local Time) from KMRB Reporting Station
Overcast Overcast  
Wind Chill: 31°   Ceiling: 4100
Heat Index: 31°   Visibility: 10mi
Dew Point: 21°   Wind: 0mph
Humidity: 67%   Direction: NA
Pressure: 30.28"   Gusts: NA
Location:  39.38°N, 78.16°W
Report Text: KMRB 210453Z AUTO 00000KT 10SM BKN041 OVC075 M01/M06 A3028 RMK AO2 SLP259 T10061061 400281072 TSNO
Loading
Personal Weather Stations






























Interactive Weather Map New forecast layout! Learn more

10-Day Weather Forecast

Advertisements
Track Severe Weather on mobile